Time;durP1;ratioP1;P1;durP2;ratioP2;P2;SDS_P1;SDS_P2;PMS_P1;PMS_P2;Temp;Humidity;BMP_temperature;BMP_pressure;BME280_temperature;BME280_humidity;BME280_pressure;Samples;Min_cycle;Max_cycle;Signal;HPM_P1;HPM_P2
2022/07/08 00:01:58;;;;;;;;;13.75;10.25;;;;;18.00;49.32;102462.38;5029893;28;47045;-51
2022/07/08 00:04:24;;;;;;;;;8.00;6.25;;;;;18.03;49.56;102464.94;5028481;28;45809;-48
2022/07/08 00:06:49;;;;;;;;;4.00;2.00;;;;;18.02;49.33;102469.38;5031548;28;45358;-46
2022/07/08 00:09:15;;;;;;;;;4.00;4.00;;;;;18.01;49.17;102470.28;5027816;28;47988;-44
2022/07/08 00:11:41;;;;;;;;;2.75;2.75;;;;;17.99;49.45;102469.47;5038785;28;45399;-45
2022/07/08 00:14:07;;;;;;;;;4.50;3.00;;;;;17.96;49.59;102458.94;5028855;28;45504;-47
2022/07/08 00:16:33;;;;;;;;;9.00;3.50;;;;;17.95;49.37;102469.59;5035366;28;45530;-45
2022/07/08 00:19:00;;;;;;;;;5.00;4.00;;;;;17.92;49.28;102472.31;5029699;28;45537;-46
2022/07/08 00:21:25;;;;;;;;;4.25;4.25;;;;;17.91;49.39;102478.56;5025894;28;46326;-45
2022/07/08 00:23:51;;;;;;;;;4.25;4.00;;;;;17.89;49.34;102475.09;5033928;28;45475;-49
2022/07/08 00:26:16;;;;;;;;;4.75;4.00;;;;;17.88;49.64;102473.34;5026991;28;65728;-49
2022/07/08 00:28:41;;;;;;;;;3.50;3.50;;;;;17.84;49.33;102465.44;5030726;28;69190;-47
2022/07/08 00:31:07;;;;;;;;;5.00;3.50;;;;;17.83;49.59;102462.88;5035262;28;73002;-50
2022/07/08 00:33:32;;;;;;;;;3.25;3.00;;;;;17.83;49.64;102469.03;5026593;28;74486;-50
2022/07/08 00:35:57;;;;;;;;;4.75;3.75;;;;;17.80;49.50;102462.94;5036710;28;70837;-51
2022/07/08 00:38:23;;;;;;;;;6.50;5.00;;;;;17.77;49.66;102466.53;5026898;28;68577;-51
2022/07/08 00:40:48;;;;;;;;;5.25;3.00;;;;;17.73;50.05;102458.75;5038196;28;57754;-52
2022/07/08 00:43:24;;;;;;;;;5.00;4.00;;;;;17.69;49.96;102452.69;5032637;28;66197;-50
2022/07/08 00:45:49;;;;;;;;;3.25;1.75;;;;;17.65;49.86;102457.19;5007984;28;45410;-54
2022/07/08 00:48:15;;;;;;;;;5.00;2.75;;;;;17.60;49.99;102455.56;5020985;28;64072;-49
2022/07/08 00:50:40;;;;;;;;;6.75;4.00;;;;;17.56;50.17;102461.88;5030027;28;45438;-50
2022/07/08 00:53:05;;;;;;;;;4.25;3.00;;;;;17.50;50.10;102464.72;5027468;28;45716;-51
2022/07/08 00:55:31;;;;;;;;;3.50;3.50;;;;;17.41;50.23;102456.09;5032842;28;49745;-47
2022/07/08 00:57:56;;;;;;;;;4.00;3.25;;;;;17.41;50.30;102466.69;5021432;28;45376;-50
2022/07/08 01:00:22;;;;;;;;;6.00;3.75;;;;;17.38;50.27;102474.72;5027865;28;58144;-49
2022/07/08 01:02:47;;;;;;;;;4.75;2.75;;;;;17.31;50.04;102478.44;5024399;28;65046;-46
2022/07/08 01:05:12;;;;;;;;;3.00;2.50;;;;;17.31;50.56;102486.38;5026850;28;53431;-45
2022/07/08 01:07:38;;;;;;;;;5.75;3.50;;;;;17.26;50.52;102490.94;5025605;28;45410;-46
2022/07/08 01:10:03;;;;;;;;;5.75;4.00;;;;;17.23;50.24;102491.03;5034280;28;46275;-45
2022/07/08 01:12:29;;;;;;;;;5.00;4.00;;;;;17.20;50.29;102493.75;5024977;28;45337;-43
2022/07/08 01:14:54;;;;;;;;;6.50;3.50;;;;;17.15;50.64;102493.84;5034760;28;45234;-44
2022/07/08 01:17:20;;;;;;;;;4.75;2.75;;;;;17.11;50.60;102491.34;5035738;28;71843;-45
2022/07/08 01:19:45;;;;;;;;;5.75;3.75;;;;;17.09;50.69;102491.41;5027740;28;68521;-47
2022/07/08 01:22:10;;;;;;;;;3.00;3.00;;;;;17.10;51.02;102487.81;5027641;28;62421;-45
2022/07/08 01:24:36;;;;;;;;;2.00;0.50;;;;;17.12;50.99;102498.38;5030576;28;67653;-44
2022/07/08 01:27:01;;;;;;;;;5.25;2.75;;;;;17.11;50.79;102500.16;5027275;28;52610;-44
2022/07/08 01:29:27;;;;;;;;;4.25;3.00;;;;;17.11;51.07;102507.22;5034757;28;46030;-44
2022/07/08 01:31:52;;;;;;;;;5.75;2.50;;;;;17.10;51.04;102510.78;5034106;28;64548;-48
2022/07/08 01:34:18;;;;;;;;;3.75;2.25;;;;;17.09;51.20;102512.56;5038743;28;45469;-44
2022/07/08 01:36:43;;;;;;;;;4.50;3.00;;;;;17.06;51.12;102505.53;5031105;28;45577;-44
2022/07/08 01:39:08;;;;;;;;;2.50;2.50;;;;;17.07;51.33;102507.31;5038050;28;74724;-48
2022/07/08 01:41:34;;;;;;;;;6.50;3.50;;;;;17.06;50.98;102513.50;5038821;28;62340;-45
2022/07/08 01:43:59;;;;;;;;;2.25;2.00;;;;;17.06;51.38;102512.63;5033442;28;61009;-47
2022/07/08 01:46:24;;;;;;;;;4.50;2.75;;;;;17.04;51.11;102512.66;5032741;28;61127;-45
2022/07/08 01:48:50;;;;;;;;;3.25;2.75;;;;;17.04;51.34;102510.00;5034662;28;45414;-48
2022/07/08 01:51:15;;;;;;;;;5.50;3.00;;;;;17.03;51.39;102516.22;5031240;28;62370;-48
2022/07/08 01:53:41;;;;;;;;;4.00;3.50;;;;;17.01;50.93;102522.44;5036963;28;45434;-50
2022/07/08 01:56:06;;;;;;;;;4.00;2.00;;;;;16.98;51.13;102520.75;5031251;28;63378;-49
2022/07/08 01:58:32;;;;;;;;;3.75;3.00;;;;;16.92;50.81;102517.41;5034394;28;46159;-49
2022/07/08 02:00:57;;;;;;;;;3.00;2.25;;;;;16.84;51.51;102507.88;5038852;28;66592;-49
2022/07/08 02:03:22;;;;;;;;;3.25;3.00;;;;;16.79;51.13;102515.03;5029060;28;45364;-49
2022/07/08 02:05:48;;;;;;;;;3.50;2.00;;;;;16.74;51.11;102516.91;5029926;28;69440;-45
2022/07/08 02:08:13;;;;;;;;;2.00;2.00;;;;;16.69;51.16;102510.88;5032080;28;69864;-46
2022/07/08 02:13:22;;;;;;;;;5.50;2.25;;;;;16.54;51.59;102509.47;5039395;28;45475;-49
2022/07/08 02:15:48;;;;;;;;;3.75;3.00;;;;;16.49;51.58;102516.63;5036768;28;72113;-46
2022/07/08 02:18:13;;;;;;;;;5.00;2.50;;;;;16.48;51.49;102521.06;5035114;28;46440;-49
2022/07/08 02:20:38;;;;;;;;;2.00;2.00;;;;;16.45;52.06;102515.84;5030873;28;45194;-45
2022/07/08 02:23:04;;;;;;;;;4.75;2.00;;;;;16.46;51.98;102516.69;5027840;28;67470;-45
2022/07/08 02:25:29;;;;;;;;;4.25;2.00;;;;;16.42;52.05;102509.75;5033916;28;57717;-51
2022/07/08 02:27:54;;;;;;;;;5.50;4.00;;;;;16.41;52.19;102516.78;5034881;28;75045;-48
2022/07/08 02:30:20;;;;;;;;;4.50;1.75;;;;;16.40;52.22;102516.84;5035940;28;64088;-45
2022/07/08 02:32:47;;;;;;;;;2.25;2.25;;;;;16.40;52.11;102509.78;5029176;28;45426;-47
2022/07/08 02:35:12;;;;;;;;;4.75;3.00;;;;;16.39;52.21;102505.38;5033546;28;68003;-49
2022/07/08 02:37:37;;;;;;;;;2.75;2.75;;;;;16.39;52.41;102507.16;5037921;28;64858;-51
2022/07/08 02:40:03;;;;;;;;;5.00;2.75;;;;;16.38;52.09;102505.41;5031136;28;68649;-50
2022/07/08 02:42:29;;;;;;;;;3.00;3.00;;;;;16.37;52.32;102499.28;5029485;28;45324;-50
2022/07/08 02:44:55;;;;;;;;;7.75;3.00;;;;;16.33;51.75;102493.19;5033760;28;45513;-51
2022/07/08 02:47:20;;;;;;;;;3.00;2.25;;;;;16.30;52.06;102498.53;5027996;28;45512;-49
2022/07/08 02:49:45;;;;;;;;;6.00;4.00;;;;;16.28;52.79;102497.72;5029558;28;68221;-51
2022/07/08 02:52:11;;;;;;;;;4.25;2.50;;;;;16.27;53.01;102503.91;5031224;28;45450;-44
2022/07/08 02:54:36;;;;;;;;;3.00;1.00;;;;;16.26;52.08;102494.25;5030985;28;45450;-45
2022/07/08 02:57:02;;;;;;;;;4.00;4.00;;;;;16.26;52.56;102498.66;5029933;28;46258;-47
2022/07/08 02:59:27;;;;;;;;;2.00;2.00;;;;;16.24;52.70;102501.34;5028240;28;45437;-45
2022/07/08 03:01:52;;;;;;;;;7.50;3.50;;;;;16.22;52.46;102500.50;5027243;28;45240;-49
2022/07/08 03:04:18;;;;;;;;;3.25;3.00;;;;;16.20;52.85;102515.53;5030325;28;46273;-50
2022/07/08 03:06:43;;;;;;;;;3.00;3.00;;;;;16.18;52.25;102509.38;5037052;28;45494;-51
2022/07/08 03:09:08;;;;;;;;;5.00;2.75;;;;;16.16;52.39;102515.63;5028082;28;45419;-48
2022/07/08 03:11:34;;;;;;;;;4.00;2.75;;;;;16.10;52.56;102512.19;5040403;28;45443;-49
2022/07/08 03:13:59;;;;;;;;;4.25;3.00;;;;;16.08;52.98;102514.00;5032215;28;47615;-46
2022/07/08 03:16:24;;;;;;;;;3.50;3.50;;;;;16.05;52.49;102511.44;5037780;28;68222;-46
2022/07/08 03:18:50;;;;;;;;;3.00;3.00;;;;;16.04;52.46;102512.34;5034409;28;45528;-45
2022/07/08 03:21:15;;;;;;;;;4.00;3.00;;;;;16.02;52.87;102515.91;5027328;28;67981;-47
2022/07/08 03:23:40;;;;;;;;;3.25;2.50;;;;;16.01;52.91;102514.19;5026774;28;56754;-47
2022/07/08 03:26:06;;;;;;;;;8.75;5.50;;;;;16.01;53.21;102519.47;5029969;28;46066;-45
2022/07/08 03:28:31;;;;;;;;;5.75;4.00;;;;;16.02;53.44;102524.69;5032781;28;45831;-47
2022/07/08 03:30:56;;;;;;;;;9.50;6.00;;;;;16.03;53.25;102522.94;5035667;28;45270;-46
2022/07/08 03:33:22;;;;;;;;;3.50;2.50;;;;;16.05;53.12;102522.00;5032349;28;47842;-46
2022/07/08 03:35:47;;;;;;;;;4.00;3.75;;;;;16.06;53.48;102531.66;5034303;28;46104;-47
2022/07/08 03:38:12;;;;;;;;;4.00;3.00;;;;;16.07;53.13;102530.75;5036443;28;69866;-44
2022/07/08 03:43:22;;;;;;;;;2.25;2.25;;;;;16.08;53.12;102534.28;5034270;28;45452;-43
2022/07/08 03:45:47;;;;;;;;;3.00;2.75;;;;;16.09;53.10;102533.34;5029875;28;62207;-43
2022/07/08 03:48:12;;;;;;;;;3.50;2.00;;;;;16.09;53.13;102546.56;5026968;28;45306;-43
2022/07/08 03:50:38;;;;;;;;;3.25;3.00;;;;;16.08;53.59;102551.00;5029975;28;45822;-43
2022/07/08 03:53:03;;;;;;;;;5.50;5.00;;;;;16.07;53.76;102540.44;5027095;28;70797;-46
2022/07/08 03:55:28;;;;;;;;;7.00;3.00;;;;;16.05;53.14;102535.19;5033730;28;46043;-49
2022/07/08 03:57:54;;;;;;;;;10.25;4.75;;;;;16.03;53.02;102538.78;5032631;28;51156;-45
2022/07/08 04:00:19;;;;;;;;;7.75;4.75;;;;;16.03;52.93;102536.16;5032470;28;61590;-43
2022/07/08 04:02:48;;;;;;;;;8.50;4.75;;;;;16.00;53.08;102544.97;5027281;28;45479;-47
2022/07/08 04:05:13;;;;;;;;;8.25;4.00;;;;;15.98;53.12;102545.94;5026365;28;46187;-45
2022/07/08 04:07:39;;;;;;;;;5.50;2.50;;;;;15.92;52.80;102553.06;5024969;28;71238;-45
2022/07/08 04:10:05;;;;;;;;;5.50;4.00;;;;;15.88;53.11;102556.69;5032753;28;45232;-47
2022/07/08 04:12:30;;;;;;;;;5.50;4.25;;;;;15.86;53.41;102544.41;5037470;28;45404;-45
2022/07/08 04:14:55;;;;;;;;;5.00;2.25;;;;;15.84;53.29;102547.06;5033889;28;46028;-45
2022/07/08 04:17:21;;;;;;;;;5.75;4.00;;;;;15.81;53.47;102547.16;5038124;28;45732;-43
2022/07/08 04:19:46;;;;;;;;;7.50;4.00;;;;;15.83;53.71;102544.44;5027526;28;70334;-44
2022/07/08 04:22:11;;;;;;;;;6.25;4.00;;;;;15.84;53.50;102540.94;5029104;28;68317;-47
2022/07/08 04:24:37;;;;;;;;;5.75;4.75;;;;;15.86;53.57;102552.31;5033091;28;75303;-46
2022/07/08 04:27:02;;;;;;;;;6.75;4.25;;;;;15.89;53.71;102554.91;5028959;28;53741;-44
2022/07/08 04:29:27;;;;;;;;;8.25;6.00;;;;;15.90;53.58;102551.34;5034600;28;45375;-46
2022/07/08 04:31:53;;;;;;;;;7.00;4.00;;;;;15.91;53.28;102551.31;5034555;28;64140;-44
2022/07/08 04:34:18;;;;;;;;;6.00;4.00;;;;;15.92;53.61;102555.72;5033436;28;71904;-44
2022/07/08 04:36:43;;;;;;;;;5.00;3.50;;;;;15.93;53.44;102557.44;5033587;28;73393;-44
2022/07/08 04:39:09;;;;;;;;;6.50;3.00;;;;;15.96;53.58;102560.94;5036201;28;45745;-49
2022/07/08 04:41:34;;;;;;;;;3.00;3.00;;;;;15.98;53.44;102552.06;5034102;28;45341;-47
2022/07/08 04:44:00;;;;;;;;;4.50;3.00;;;;;16.00;53.65;102557.31;5036777;28;45353;-50
2022/07/08 04:46:25;;;;;;;;;4.00;4.00;;;;;16.02;53.38;102556.38;5030626;28;63532;-48
2022/07/08 04:48:51;;;;;;;;;8.25;5.00;;;;;16.05;53.23;102566.88;5026006;28;63470;-50
2022/07/08 04:51:17;;;;;;;;;6.75;4.75;;;;;16.07;53.62;102575.66;5027500;28;62007;-47
2022/07/08 04:53:42;;;;;;;;;5.50;4.25;;;;;16.09;53.11;102570.34;5023148;28;75158;-45
2022/07/08 04:56:07;;;;;;;;;5.00;4.00;;;;;16.11;52.95;102563.25;5034406;28;45261;-45
2022/07/08 04:58:33;;;;;;;;;4.50;4.00;;;;;16.13;53.34;102569.38;5034573;28;45253;-47
2022/07/08 05:00:58;;;;;;;;;7.25;4.75;;;;;16.13;53.15;102572.03;5028143;28;45478;-47
2022/07/08 05:03:24;;;;;;;;;3.00;3.00;;;;;16.12;53.05;102576.41;5025522;28;45231;-46
2022/07/08 05:05:49;;;;;;;;;5.00;3.50;;;;;16.13;53.21;102578.19;5030054;28;45216;-45
2022/07/08 05:08:14;;;;;;;;;4.00;4.00;;;;;16.14;53.31;102579.91;5027175;28;60036;-49
2022/07/08 05:10:40;;;;;;;;;6.00;4.50;;;;;16.17;53.13;102578.13;5033671;28;45375;-48
2022/07/08 05:13:07;;;;;;;;;4.50;2.75;;;;;16.20;53.32;102578.94;5032208;28;46347;-46
2022/07/08 05:15:32;;;;;;;;;4.75;4.75;;;;;16.24;53.12;102593.78;5036788;28;45429;-47
2022/07/08 05:17:58;;;;;;;;;5.25;3.00;;;;;16.28;52.87;102594.59;5038707;28;45380;-45
2022/07/08 05:20:23;;;;;;;;;5.50;3.50;;;;;16.28;53.16;102590.19;5036453;28;45352;-50
2022/07/08 05:22:48;;;;;;;;;7.50;4.75;;;;;16.28;52.82;102598.09;5037056;28;46114;-48
2022/07/08 05:25:14;;;;;;;;;4.75;3.00;;;;;16.30;53.04;102598.94;5037622;28;45658;-48
2022/07/08 05:27:40;;;;;;;;;5.00;4.00;;;;;16.34;53.12;102591.81;5041104;28;45344;-45
2022/07/08 05:30:07;;;;;;;;;6.00;5.00;;;;;16.39;52.94;102589.09;5039562;28;45442;-48
2022/07/08 05:32:33;;;;;;;;;4.50;2.50;;;;;16.46;52.60;102591.56;5033453;28;45341;-51
2022/07/08 05:34:59;;;;;;;;;5.00;4.25;;;;;16.54;52.72;102595.78;5027887;28;45333;-48
2022/07/08 05:37:24;;;;;;;;;5.00;4.00;;;;;16.60;52.25;102593.03;5036731;28;45319;-45
2022/07/08 05:39:49;;;;;;;;;7.75;4.00;;;;;16.67;52.27;102597.28;5035579;28;45452;-46
2022/07/08 05:42:15;;;;;;;;;10.00;4.50;;;;;16.72;52.46;102589.25;5035048;28;54712;-47
2022/07/08 05:44:40;;;;;;;;;7.75;4.00;;;;;16.75;52.19;102595.34;5034204;28;62306;-47
2022/07/08 05:47:09;;;;;;;;;3.50;2.50;;;;;16.80;52.38;102597.84;5038450;28;45388;-47
2022/07/08 05:49:35;;;;;;;;;8.00;4.75;;;;;16.83;52.28;102588.09;5030494;28;45454;-45
2022/07/08 05:52:02;;;;;;;;;4.25;4.25;;;;;16.88;51.97;102598.59;5040036;28;46136;-45
2022/07/08 05:54:27;;;;;;;;;7.25;3.25;;;;;16.90;51.86;102591.47;5036261;28;45547;-45
2022/07/08 05:56:53;;;;;;;;;7.25;3.25;;;;;16.95;51.62;102594.88;5029503;28;69424;-46
2022/07/08 05:59:18;;;;;;;;;4.75;3.00;;;;;17.00;51.86;102592.16;5029355;28;45469;-48
2022/07/08 06:01:44;;;;;;;;;6.00;3.00;;;;;17.05;51.61;102592.88;5032866;28;73439;-45
2022/07/08 06:04:09;;;;;;;;;5.50;4.00;;;;;17.09;51.66;102597.22;5033822;28;45553;-47
2022/07/08 06:06:34;;;;;;;;;6.25;4.25;;;;;17.12;51.49;102586.53;5037137;28;45445;-45
2022/07/08 06:09:00;;;;;;;;;9.50;2.50;;;;;17.16;51.21;102587.34;5034324;28;65201;-44
2022/07/08 06:11:25;;;;;;;;;4.25;2.75;;;;;17.20;51.24;102594.28;5026686;28;58309;-46
2022/07/08 06:13:51;;;;;;;;;5.50;4.25;;;;;17.21;50.82;102598.66;5033118;28;52020;-47
2022/07/08 06:16:16;;;;;;;;;6.00;4.50;;;;;17.23;51.14;102603.03;5035780;28;45422;-48
2022/07/08 06:18:41;;;;;;;;;4.50;3.25;;;;;17.26;51.00;102596.78;5033366;28;67015;-44
2022/07/08 06:21:07;;;;;;;;;15.25;12.75;;;;;17.25;50.81;102603.84;5030382;28;46030;-46
2022/07/08 06:23:34;;;;;;;;;6.50;4.50;;;;;17.25;50.89;102597.69;5030874;28;62929;-47
2022/07/08 06:25:59;;;;;;;;;7.00;4.00;;;;;17.28;50.87;102602.88;5035838;28;45450;-50
2022/07/08 06:28:25;;;;;;;;;8.75;4.50;;;;;17.27;50.84;102604.66;5033252;28;70929;-49
2022/07/08 06:30:50;;;;;;;;;7.00;3.75;;;;;17.31;50.80;102604.59;5038996;28;65220;-45
2022/07/08 06:33:15;;;;;;;;;4.25;2.00;;;;;17.30;50.80;102600.19;5038666;28;45352;-47
2022/07/08 06:35:41;;;;;;;;;4.75;4.00;;;;;17.31;50.81;102613.41;5036285;28;45515;-44
2022/07/08 06:38:06;;;;;;;;;6.25;3.75;;;;;17.34;50.65;102612.47;5032878;28;71500;-47
2022/07/08 06:40:31;;;;;;;;;3.50;3.50;;;;;17.34;50.50;102608.03;5032400;28;62834;-51
2022/07/08 06:42:57;;;;;;;;;3.25;2.50;;;;;17.34;50.46;102618.63;5031603;28;45361;-51
2022/07/08 06:45:22;;;;;;;;;5.00;3.50;;;;;17.37;50.61;102620.31;5031112;28;54462;-49
2022/07/08 06:47:47;;;;;;;;;6.00;4.75;;;;;17.40;50.39;102614.94;5036887;28;74584;-45
2022/07/08 06:50:13;;;;;;;;;3.50;3.50;;;;;17.44;50.30;102609.53;5028843;28;47514;-46
2022/07/08 06:52:38;;;;;;;;;7.25;3.25;;;;;17.50;50.52;102611.16;5033184;28;68997;-48
2022/07/08 06:55:04;;;;;;;;;10.25;4.00;;;;;17.52;50.47;102611.13;5032234;28;67388;-51
2022/07/08 06:57:29;;;;;;;;;4.00;3.25;;;;;17.53;50.21;102611.09;5032984;28;45230;-48
2022/07/08 06:59:55;;;;;;;;;2.75;2.00;;;;;17.56;50.37;102612.78;5031274;28;67992;-51
2022/07/08 07:02:20;;;;;;;;;5.75;3.00;;;;;17.61;50.06;102614.38;5029269;28;69512;-50
2022/07/08 07:04:45;;;;;;;;;5.75;3.00;;;;;17.64;49.95;102618.75;5028532;28;64699;-50
2022/07/08 07:07:11;;;;;;;;;6.75;3.75;;;;;17.64;50.06;102618.75;5027477;28;45337;-48
2022/07/08 07:09:38;;;;;;;;;3.75;3.75;;;;;17.67;50.01;102620.44;5030059;28;45873;-54
2022/07/08 07:12:05;;;;;;;;;6.50;3.25;;;;;17.68;49.86;102615.09;5028377;28;45343;-50
2022/07/08 07:14:30;;;;;;;;;3.50;3.50;;;;;17.71;49.93;102612.38;5033366;28;45368;-52
2022/07/08 07:16:56;;;;;;;;;4.00;3.75;;;;;17.76;49.87;102614.88;5031573;28;72546;-50
2022/07/08 07:19:21;;;;;;;;;6.00;4.00;;;;;17.83;49.88;102617.34;5036694;28;45429;-49
2022/07/08 07:21:46;;;;;;;;;5.25;3.75;;;;;17.89;49.76;102620.78;5028833;28;45383;-47
2022/07/08 07:24:12;;;;;;;;;5.50;4.75;;;;;17.92;49.77;102612.72;5037093;28;60096;-47
2022/07/08 07:26:37;;;;;;;;;7.00;3.00;;;;;17.97;49.69;102618.75;5035455;28;65497;-45
2022/07/08 07:29:03;;;;;;;;;13.50;6.00;;;;;18.01;49.56;102616.00;5031117;28;46377;-47
2022/07/08 07:31:29;;;;;;;;;6.50;5.75;;;;;18.06;49.42;102614.97;5038111;28;45221;-46
2022/07/08 07:33:54;;;;;;;;;8.25;4.50;;;;;18.11;49.31;102626.31;5029805;28;45865;-47
2022/07/08 07:36:19;;;;;;;;;5.25;2.75;;;;;18.11;49.14;102624.53;5039366;28;45280;-47
2022/07/08 07:38:45;;;;;;;;;5.75;5.00;;;;;18.16;49.22;102624.41;5023501;28;63988;-47
2022/07/08 07:41:10;;;;;;;;;4.75;4.00;;;;;18.20;49.03;102621.63;5037110;28;62662;-47
2022/07/08 07:43:35;;;;;;;;;5.75;5.00;;;;;18.25;48.83;102625.94;5027990;28;45493;-50
2022/07/08 07:46:01;;;;;;;;;7.00;6.25;;;;;18.32;48.64;102632.78;5027075;28;63456;-51
2022/07/08 07:48:26;;;;;;;;;11.25;9.00;;;;;18.35;48.55;102630.06;5027978;28;60867;-49
2022/07/08 07:50:52;;;;;;;;;6.00;5.00;;;;;18.37;48.27;102631.72;5028431;28;53141;-49
2022/07/08 07:53:18;;;;;;;;;9.75;6.50;;;;;18.42;48.42;102626.31;5027045;28;45493;-47
2022/07/08 07:55:43;;;;;;;;;9.00;6.00;;;;;18.48;48.00;102626.09;5030346;28;45403;-48
2022/07/08 07:58:08;;;;;;;;;8.25;6.00;;;;;18.50;48.10;102620.75;5003518;28;45835;-49
2022/07/08 08:00:34;;;;;;;;;7.00;5.00;;;;;18.55;48.15;102621.50;5032535;28;71676;-47
2022/07/08 08:02:59;;;;;;;;;4.50;3.50;;;;;18.63;48.10;102621.25;5035093;28;45566;-46
2022/07/08 08:05:25;;;;;;;;;12.75;8.00;;;;;18.71;48.00;102622.75;5033707;28;58130;-46
2022/07/08 08:07:50;;;;;;;;;8.25;6.50;;;;;18.82;48.09;102624.25;5036998;28;46004;-46
2022/07/08 08:10:15;;;;;;;;;8.50;6.75;;;;;18.88;47.83;102622.28;5033326;28;45481;-47
2022/07/08 08:12:41;;;;;;;;;8.50;4.00;;;;;18.92;47.73;102618.59;5028818;28;45346;-47
2022/07/08 08:15:07;;;;;;;;;11.75;5.50;;;;;18.97;47.67;102621.97;5034121;28;45525;-46
2022/07/08 08:17:37;;;;;;;;;8.75;7.00;;;;;19.03;47.42;102620.03;5028325;28;47143;-49
2022/07/08 08:20:07;;;;;;;;;10.00;5.75;;;;;19.08;47.54;102610.13;5028009;28;45403;-51
2022/07/08 08:22:32;;;;;;;;;7.00;5.75;;;;;19.14;47.43;102616.13;5032615;28;45457;-47
2022/07/08 08:24:57;;;;;;;;;7.25;6.00;;;;;19.21;47.30;102611.50;5028521;28;45416;-46
2022/07/08 08:27:23;;;;;;;;;8.00;6.00;;;;;19.27;46.82;102618.38;5031408;28;67436;-45
2022/07/08 08:29:48;;;;;;;;;5.25;5.00;;;;;19.30;46.59;102616.47;5030333;28;45244;-49
2022/07/08 08:32:14;;;;;;;;;7.00;5.00;;;;;19.38;46.43;102618.88;5037926;28;45182;-47
2022/07/08 08:34:39;;;;;;;;;6.00;4.00;;;;;19.47;46.44;102607.91;5035433;28;64127;-47
2022/07/08 08:37:04;;;;;;;;;6.50;5.00;;;;;19.56;46.39;102609.38;5036029;28;46042;-45
2022/07/08 08:39:30;;;;;;;;;6.25;4.50;;;;;19.64;46.04;102610.00;5034001;28;45269;-49
2022/07/08 08:41:55;;;;;;;;;9.25;6.00;;;;;19.68;45.94;102608.97;5036419;28;45510;-46
2022/07/08 08:44:20;;;;;;;;;7.25;5.00;;;;;19.71;46.04;102605.34;5024354;28;63868;-48
2022/07/08 08:46:46;;;;;;;;;8.25;6.25;;;;;19.80;46.16;102606.84;5029049;28;59520;-48
2022/07/08 08:49:12;;;;;;;;;6.50;5.50;;;;;19.86;46.12;102595.97;5030117;28;45489;-46
2022/07/08 08:51:40;;;;;;;;;7.25;6.00;;;;;19.93;45.46;102600.16;5035864;28;45517;-51
2022/07/08 08:54:06;;;;;;;;;8.75;7.00;;;;;19.96;45.07;102593.88;5026908;28;45451;-50
2022/07/08 08:56:32;;;;;;;;;9.25;4.00;;;;;19.96;45.06;102594.72;5032291;28;46365;-49
2022/07/08 08:58:58;;;;;;;;;6.00;5.25;;;;;20.01;45.34;102586.56;5030738;28;45455;-47
2022/07/08 09:01:24;;;;;;;;;11.25;7.25;;;;;20.05;45.16;102589.06;5037262;28;45344;-47
2022/07/08 09:03:49;;;;;;;;;11.00;8.00;;;;;20.07;44.33;102581.88;5032447;28;45584;-49
2022/07/08 09:06:14;;;;;;;;;7.25;5.00;;;;;20.13;44.98;102583.44;5030493;28;64665;-47
2022/07/08 09:08:40;;;;;;;;;10.00;7.00;;;;;20.15;44.58;102584.28;5029555;28;63750;-49
2022/07/08 09:11:06;;;;;;;;;10.75;7.00;;;;;20.21;44.24;102578.72;5027692;28;45371;-43
2022/07/08 09:13:31;;;;;;;;;9.00;5.75;;;;;20.29;44.47;102573.97;5026225;28;45452;-45
2022/07/08 09:15:58;;;;;;;;;12.25;8.50;;;;;20.33;43.51;102564.09;5035762;28;46412;-47
2022/07/08 09:18:31;;;;;;;;;12.25;10.50;;;;;20.42;43.67;102570.84;5030203;28;45395;-47
2022/07/08 09:20:58;;;;;;;;;10.50;8.00;;;;;20.49;43.58;102578.50;5027007;28;45256;-48
2022/07/08 09:23:23;;;;;;;;;6.75;4.75;;;;;20.57;43.31;102572.03;5031049;28;45721;-49
2022/07/08 09:25:53;;;;;;;;;7.00;6.00;;;;;20.64;43.74;102573.53;5033951;28;45424;-45
2022/07/08 09:28:41;;;;;;;;;11.00;11.00;;;;;20.73;43.13;102570.50;5035189;28;45292;-46
2022/07/08 09:31:09;;;;;;;;;8.75;7.75;;;;;20.83;43.02;102565.69;5033157;28;45273;-45
2022/07/08 09:33:35;;;;;;;;;16.50;10.50;;;;;20.91;42.43;102557.38;5036365;28;45470;-47
2022/07/08 09:36:01;;;;;;;;;10.00;7.00;;;;;21.01;42.81;102561.38;5037307;28;45504;-46
2022/07/08 09:38:27;;;;;;;;;8.50;6.25;;;;;21.11;42.74;102545.91;5033516;28;45276;-51
2022/07/08 09:41:03;;;;;;;;;11.25;8.75;;;;;21.24;42.42;102547.09;5034365;28;45250;-47
2022/07/08 09:43:29;;;;;;;;;7.00;6.00;;;;;21.42;42.60;102556.97;5030868;28;45419;-51
2022/07/08 09:46:02;;;;;;;;;12.00;9.25;;;;;21.75;42.64;102552.91;5036283;28;45520;-49
2022/07/08 09:48:28;;;;;;;;;8.00;5.25;;;;;22.30;41.63;102557.50;5032978;28;46184;-45
2022/07/08 09:50:54;;;;;;;;;6.50;4.25;;;;;23.46;40.43;102557.97;5037927;28;59553;-48
2022/07/08 09:53:22;;;;;;;;;5.00;4.50;;;;;25.10;39.10;102558.66;5027571;28;58983;-47
2022/07/08 09:55:53;;;;;;;;;7.50;6.00;;;;;26.79;34.60;102559.75;5035111;28;46089;-46
2022/07/08 09:58:20;;;;;;;;;8.75;5.00;;;;;28.50;35.25;102555.84;5033768;28;45773;-49
2022/07/08 10:00:50;;;;;;;;;7.25;3.00;;;;;30.02;33.19;102549.47;5029434;28;45403;-46
2022/07/08 10:03:17;;;;;;;;;6.75;3.00;;;;;31.46;31.07;102556.38;5036806;28;45549;-44
2022/07/08 10:05:43;;;;;;;;;10.75;8.75;;;;;32.65;29.76;102554.75;5029008;28;47316;-48
2022/07/08 10:08:09;;;;;;;;;5.75;4.25;;;;;33.39;27.87;102555.97;5038961;28;45648;-47
2022/07/08 10:10:36;;;;;;;;;6.50;4.00;;;;;34.00;27.25;102552.72;5036931;28;45409;-49
2022/07/08 10:13:02;;;;;;;;;2.75;2.50;;;;;34.87;26.80;102549.53;5026884;28;45225;-46
2022/07/08 10:15:29;;;;;;;;;2.25;2.25;;;;;35.64;24.62;102552.41;5036253;28;45466;-47
2022/07/08 10:17:57;;;;;;;;;5.25;2.75;;;;;36.39;23.64;102551.63;5028195;28;45720;-51
2022/07/08 10:20:26;;;;;;;;;2.50;2.50;;;;;36.86;22.09;102543.66;5029658;28;45475;-52
2022/07/08 10:22:55;;;;;;;;;5.00;3.00;;;;;37.68;22.74;102544.50;5034013;28;45618;-50
2022/07/08 10:25:20;;;;;;;;;3.25;3.25;;;;;38.24;21.52;102541.66;5027463;28;46619;-52
2022/07/08 10:27:47;;;;;;;;;3.75;2.00;;;;;38.87;20.16;102542.38;5018969;28;73707;-50
2022/07/08 10:30:16;;;;;;;;;7.75;3.75;;;;;39.47;20.93;102543.28;5036093;28;45388;-53
2022/07/08 10:32:45;;;;;;;;;4.25;2.75;;;;;39.62;19.68;102551.50;5034886;28;45389;-51
2022/07/08 10:35:13;;;;;;;;;3.50;3.50;;;;;39.46;19.98;102542.41;5028758;28;46310;-52
2022/07/08 10:37:45;;;;;;;;;4.75;3.75;;;;;39.30;20.28;102543.47;5036703;28;45620;-52
2022/07/08 10:40:11;;;;;;;;;4.75;3.00;;;;;39.33;20.29;102550.47;5037691;28;45364;-51
2022/07/08 10:42:37;;;;;;;;;11.25;10.50;;;;;39.47;19.14;102537.81;5011679;28;45427;-54
2022/07/08 10:45:02;;;;;;;;;4.50;3.50;;;;;39.73;19.93;102539.19;5033362;28;75304;-47
2022/07/08 10:47:28;;;;;;;;;7.00;5.50;;;;;40.15;18.29;102540.34;5028078;28;45436;-47
2022/07/08 10:50:03;;;;;;;;;2.00;2.00;;;;;40.54;18.99;102536.31;5032706;28;45501;-48
2022/07/08 10:52:37;;;;;;;;;2.00;1.50;;;;;40.76;18.64;102542.59;5026883;28;45232;-48
2022/07/08 10:55:16;;;;;;;;;2.75;2.75;;;;;40.82;18.22;102547.34;5034496;28;45884;-45
2022/07/08 10:57:58;;;;;;;;;4.25;1.75;;;;;40.86;17.95;102540.38;5026916;28;45414;-50
2022/07/08 11:00:23;;;;;;;;;3.25;1.50;;;;;41.00;17.46;102538.56;5036910;28;45446;-51
2022/07/08 11:02:50;;;;;;;;;4.25;2.25;;;;;41.17;17.50;102528.97;5033938;28;45407;-48
2022/07/08 11:05:38;;;;;;;;;2.25;2.00;;;;;41.65;16.79;102530.03;5033192;28;46240;-50
2022/07/08 11:08:18;;;;;;;;;3.50;1.00;;;;;42.03;17.42;102533.16;5035340;28;45637;-51
2022/07/08 11:10:43;;;;;;;;;3.00;1.00;;;;;42.04;16.20;102536.72;5030564;28;45544;-51
2022/07/08 11:13:10;;;;;;;;;6.00;3.00;;;;;41.80;16.24;102528.00;5036434;28;72198;-50
2022/07/08 11:15:36;;;;;;;;;0.00;0.00;;;;;41.64;15.93;102528.38;5038061;28;45450;-52
2022/07/08 11:18:02;;;;;;;;;2.75;1.00;;;;;41.86;15.74;102529.09;5026407;28;45260;-51
2022/07/08 11:20:30;;;;;;;;;0.00;0.00;;;;;42.24;16.08;102520.31;5032923;28;45325;-50
2022/07/08 11:22:55;;;;;;;;;12.25;9.75;;;;;42.39;15.43;102528.34;5023571;28;45372;-51
2022/07/08 11:25:21;;;;;;;;;1.75;0.50;;;;;42.63;15.70;102530.50;5034832;28;45332;-48